createdAt,value
2019-03-03T00:00:56.213Z,4.43
2019-03-03T00:03:25.635Z,4.60
2019-03-03T00:05:55.158Z,4.27
2019-03-03T00:08:24.809Z,4.40
2019-03-03T00:10:54.385Z,4.73
2019-03-03T00:13:23.885Z,4.30
2019-03-03T00:15:53.534Z,5.23
2019-03-03T00:18:23.287Z,5.03
2019-03-03T00:20:53.133Z,4.20
2019-03-03T00:23:22.657Z,4.17
2019-03-03T00:25:52.115Z,5.47
2019-03-03T00:28:21.773Z,4.87
2019-03-03T00:30:51.438Z,4.53
2019-03-03T00:33:20.985Z,4.87
2019-03-03T00:35:51.511Z,5.13
2019-03-03T00:38:25.316Z,4.90
2019-03-03T00:40:59.403Z,4.73
2019-03-03T00:43:30.595Z,4.47
2019-03-03T00:46:13.883Z,4.93
2019-03-03T00:48:45.063Z,5.10
2019-03-03T00:51:27.937Z,5.23
2019-03-03T00:54:15.097Z,5.20
2019-03-03T00:57:03.993Z,5.20
2019-03-03T00:59:35.129Z,5.30
2019-03-03T01:04:56.245Z,5.10
2019-03-03T01:07:27.527Z,5.30
2019-03-03T01:10:03.059Z,5.97
2019-03-03T01:12:42.375Z,4.83
2019-03-03T01:15:16.375Z,4.63
2019-03-03T01:17:50.636Z,5.00
2019-03-03T01:20:21.837Z,5.17
2019-03-03T01:22:52.993Z,4.80
2019-03-03T01:25:28.553Z,5.70
2019-03-03T01:28:03.533Z,5.67
2019-03-03T01:30:33.133Z,7.80
2019-03-03T01:33:02.563Z,6.70
2019-03-03T01:38:07.481Z,5.77
2019-03-03T01:40:36.885Z,5.30
2019-03-03T01:43:06.349Z,6.03
2019-03-03T01:45:37.529Z,5.70
2019-03-03T01:48:07.072Z,4.67
2019-03-03T01:50:36.553Z,5.50
2019-03-03T01:53:05.988Z,5.33
2019-03-03T01:55:35.515Z,5.67
2019-03-03T01:58:05.025Z,5.60
2019-03-03T02:00:34.595Z,7.00
2019-03-03T02:03:04.435Z,5.73
2019-03-03T02:05:33.961Z,5.23
2019-03-03T02:08:03.568Z,5.83
2019-03-03T02:10:36.393Z,5.90
2019-03-03T02:13:07.499Z,5.93
2019-03-03T02:15:37.079Z,5.67
2019-03-03T02:18:11.929Z,6.23
2019-03-03T02:20:46.960Z,7.23
2019-03-03T02:23:35.057Z,6.07
2019-03-03T02:26:04.748Z,6.50
2019-03-03T02:28:35.395Z,6.17
2019-03-03T02:31:05.014Z,6.10
2019-03-03T02:33:34.443Z,6.13
2019-03-03T02:36:03.976Z,6.47
2019-03-03T02:38:33.478Z,6.80
2019-03-03T02:41:03.025Z,7.40
2019-03-03T02:43:35.532Z,6.57
2019-03-03T02:46:05.097Z,6.47
2019-03-03T02:48:34.659Z,6.03
2019-03-03T02:51:04.500Z,7.80
2019-03-03T02:53:34.070Z,6.47
2019-03-03T02:56:03.609Z,6.67
2019-03-03T02:58:33.120Z,6.90
2019-03-03T03:01:06.189Z,7.23
2019-03-03T03:03:35.670Z,7.80
2019-03-03T03:06:15.659Z,6.90
2019-03-03T03:08:46.794Z,7.93
2019-03-03T03:11:23.746Z,7.03
2019-03-03T03:14:07.042Z,6.87
2019-03-03T03:16:40.888Z,7.83
2019-03-03T03:19:16.606Z,6.90
2019-03-03T03:24:55.282Z,6.80
2019-03-03T03:27:35.483Z,6.93
2019-03-03T03:30:15.600Z,7.17
2019-03-03T03:32:48.078Z,8.13
2019-03-03T03:35:20.825Z,7.60
2019-03-03T03:37:59.665Z,7.63
2019-03-03T03:40:35.104Z,8.07
2019-03-03T03:43:21.092Z,7.37
2019-03-03T03:46:04.023Z,7.63
2019-03-03T03:48:40.967Z,7.97
2019-03-03T03:51:30.876Z,6.93
2019-03-03T03:54:10.277Z,8.37
2019-03-03T03:56:43.264Z,6.50
2019-03-03T03:59:17.238Z,6.97
2019-03-03T04:01:59.207Z,7.00
2019-03-03T04:04:39.178Z,7.67
2019-03-03T04:07:10.388Z,7.23
2019-03-03T04:09:46.987Z,8.10
2019-03-03T04:12:35.782Z,7.07
2019-03-03T04:15:11.269Z,6.57
2019-03-03T04:17:57.471Z,7.23
2019-03-03T04:20:46.375Z,7.00
2019-03-03T04:26:07.327Z,6.67
2019-03-03T04:28:47.557Z,7.60
2019-03-03T04:31:21.449Z,7.57
2019-03-03T04:33:54.219Z,8.00
2019-03-03T04:36:37.499Z,7.03
2019-03-03T04:39:29.751Z,8.20
2019-03-03T04:42:06.288Z,7.90
2019-03-03T04:44:40.163Z,8.37
2019-03-03T04:47:17.327Z,8.43
2019-03-03T04:49:48.379Z,7.93
2019-03-03T04:52:28.397Z,8.90
2019-03-03T04:55:17.605Z,9.97
2019-03-03T04:58:03.734Z,7.83
2019-03-03T05:00:50.837Z,8.33
2019-03-03T05:03:22.036Z,9.13
2019-03-03T05:06:02.186Z,7.60
2019-03-03T05:08:36.053Z,8.17
2019-03-03T05:11:07.244Z,7.77
2019-03-03T05:13:56.486Z,7.43
2019-03-03T05:16:30.619Z,8.10
2019-03-03T05:19:01.734Z,7.83
2019-03-03T05:21:31.405Z,7.80
2019-03-03T05:24:00.915Z,9.00
2019-03-03T05:26:30.342Z,8.27
2019-03-03T05:28:59.952Z,7.63
2019-03-03T05:31:29.497Z,8.80
2019-03-03T05:33:58.958Z,8.53
2019-03-03T05:36:28.410Z,8.67
2019-03-03T05:38:57.886Z,7.93
2019-03-03T05:41:27.439Z,7.80
2019-03-03T05:43:56.970Z,7.73
2019-03-03T05:46:26.432Z,8.33
2019-03-03T05:48:55.960Z,7.93
2019-03-03T05:51:25.463Z,9.00
2019-03-03T05:53:54.885Z,7.83
2019-03-03T05:56:24.468Z,7.80
2019-03-03T05:58:54.150Z,8.03
2019-03-03T06:01:23.554Z,8.23
2019-03-03T06:03:53.072Z,8.20
2019-03-03T06:06:22.586Z,8.63
2019-03-03T06:08:52.096Z,9.10
2019-03-03T06:11:22.213Z,8.70
2019-03-03T06:13:51.752Z,8.83
2019-03-03T06:16:21.372Z,8.83
2019-03-03T06:18:50.865Z,8.77
2019-03-03T06:21:20.272Z,10.57
2019-03-03T06:23:49.692Z,8.47
2019-03-03T06:26:19.173Z,8.30
2019-03-03T06:28:48.562Z,8.77
2019-03-03T06:31:17.983Z,9.93
2019-03-03T06:33:47.467Z,10.00
2019-03-03T06:36:16.885Z,9.93
2019-03-03T06:38:46.402Z,10.33
2019-03-03T06:41:15.990Z,9.83
2019-03-03T06:43:45.502Z,10.53
2019-03-03T06:46:15.078Z,9.93
2019-03-03T06:48:44.536Z,10.03
2019-03-03T06:51:14.170Z,9.93
2019-03-03T06:53:43.674Z,11.07
2019-03-03T06:56:13.306Z,11.23
2019-03-03T06:58:42.739Z,11.30
2019-03-03T07:01:12.198Z,10.33
2019-03-03T07:03:41.651Z,11.73
2019-03-03T07:06:11.298Z,11.10
2019-03-03T07:08:40.770Z,13.67
2019-03-03T07:11:10.259Z,15.27
2019-03-03T07:13:39.780Z,11.67
2019-03-03T07:16:09.196Z,11.13
2019-03-03T07:18:38.633Z,12.20
2019-03-03T07:21:08.084Z,11.87
2019-03-03T07:23:37.591Z,11.80
2019-03-03T07:26:07.061Z,11.67
2019-03-03T07:28:36.604Z,11.90
2019-03-03T07:31:06.092Z,11.97
2019-03-03T07:33:35.632Z,11.77
2019-03-03T07:36:05.190Z,11.57
2019-03-03T07:38:34.707Z,12.03
2019-03-03T07:41:04.208Z,12.23
2019-03-03T07:43:33.724Z,11.73
2019-03-03T07:46:03.610Z,11.50
2019-03-03T07:48:33.154Z,11.83
2019-03-03T07:51:02.704Z,11.43
2019-03-03T07:53:32.210Z,10.57
2019-03-03T07:56:01.744Z,10.40
2019-03-03T07:58:31.327Z,9.90
2019-03-03T08:01:01.410Z,9.80
2019-03-03T08:03:31.028Z,11.07
2019-03-03T08:06:00.580Z,10.87
2019-03-03T08:08:30.146Z,10.17
2019-03-03T08:10:59.774Z,10.10
2019-03-03T08:13:29.364Z,10.07
2019-03-03T08:15:58.890Z,9.53
2019-03-03T08:18:28.478Z,9.30
2019-03-03T08:20:57.946Z,10.27
2019-03-03T08:23:27.532Z,10.10
2019-03-03T08:25:57.027Z,9.60
2019-03-03T08:28:26.526Z,10.40
2019-03-03T08:30:56.082Z,9.67
2019-03-03T08:33:25.606Z,10.27
2019-03-03T08:35:55.075Z,9.63
2019-03-03T08:38:24.644Z,10.57
2019-03-03T08:40:54.150Z,9.70
2019-03-03T08:43:27.650Z,10.57
2019-03-03T08:46:01.420Z,10.07
2019-03-03T08:48:35.650Z,10.00
2019-03-03T08:51:06.850Z,9.27
2019-03-03T08:53:40.976Z,10.90
2019-03-03T08:56:14.979Z,10.90
2019-03-03T08:58:51.898Z,10.30
2019-03-03T09:04:25.038Z,10.30
2019-03-03T09:06:59.187Z,10.03
2019-03-03T09:09:41.789Z,10.43
2019-03-03T09:12:27.748Z,9.77
2019-03-03T09:15:04.314Z,10.00
2019-03-03T09:17:38.260Z,9.87
2019-03-03T09:20:29.267Z,11.23
2019-03-03T09:23:00.398Z,10.67
2019-03-03T09:25:46.433Z,10.97
2019-03-03T09:28:29.637Z,10.30
2019-03-03T09:31:03.694Z,11.17
2019-03-03T09:33:50.916Z,11.07
2019-03-03T09:36:31.138Z,11.00
2019-03-03T09:39:08.074Z,11.53
2019-03-03T09:41:51.128Z,9.87
2019-03-03T09:44:22.322Z,10.13
2019-03-03T09:47:05.198Z,10.80
2019-03-03T09:49:48.042Z,11.17
2019-03-03T09:52:19.279Z,10.47
2019-03-03T09:55:02.523Z,10.17
2019-03-03T09:57:45.904Z,11.13
2019-03-03T10:00:22.878Z,9.73
2019-03-03T10:02:54.018Z,9.87
2019-03-03T10:05:28.038Z,11.57
2019-03-03T10:07:59.243Z,9.47
2019-03-03T10:10:30.498Z,10.70
2019-03-03T10:13:01.824Z,11.07
2019-03-03T10:15:48.101Z,10.37
2019-03-03T10:18:22.316Z,11.50
2019-03-03T10:20:53.468Z,10.53
2019-03-03T10:23:27.836Z,12.17
2019-03-03T10:26:01.684Z,10.50
2019-03-03T10:28:49.060Z,10.63
2019-03-03T10:31:26.035Z,10.40
2019-03-03T10:34:03.273Z,10.83
2019-03-03T10:36:43.568Z,10.13
2019-03-03T10:39:17.726Z,10.67
2019-03-03T10:41:48.882Z,11.53
2019-03-03T10:44:22.706Z,10.93
2019-03-03T10:47:11.785Z,10.10
2019-03-03T10:49:58.032Z,10.37
2019-03-03T10:52:31.874Z,11.20
2019-03-03T10:55:11.929Z,10.43
2019-03-03T10:57:43.183Z,10.67
2019-03-03T11:00:34.551Z,9.93
2019-03-03T11:03:06.009Z,10.53
2019-03-03T11:05:37.342Z,10.30
2019-03-03T11:08:17.637Z,10.53
2019-03-03T11:10:57.368Z,10.20
2019-03-03T11:13:33.749Z,9.20
2019-03-03T11:16:21.256Z,9.27
2019-03-03T11:19:01.072Z,9.63
2019-03-03T11:21:48.489Z,9.03
2019-03-03T11:24:35.551Z,9.80
2019-03-03T11:27:09.448Z,9.20
2019-03-03T11:29:43.613Z,8.70
2019-03-03T11:32:29.922Z,9.07
2019-03-03T11:35:04.323Z,9.00
2019-03-03T11:37:35.554Z,8.30
2019-03-03T11:40:15.010Z,8.43
2019-03-03T11:42:57.682Z,8.20
2019-03-03T11:45:28.846Z,8.67
2019-03-03T11:48:04.237Z,9.53
2019-03-03T11:50:35.396Z,8.90
2019-03-03T11:53:09.054Z,8.40
2019-03-03T11:55:40.256Z,9.40
2019-03-03T11:58:14.411Z,8.13
2019-03-03T12:00:48.702Z,8.07
2019-03-03T12:03:19.850Z,8.20
2019-03-03T12:05:50.991Z,7.70
2019-03-03T12:08:34.057Z,8.30
2019-03-03T12:11:05.141Z,7.43
2019-03-03T12:13:38.993Z,7.80
2019-03-03T12:16:12.968Z,8.00
2019-03-03T12:18:49.815Z,7.67
2019-03-03T12:21:20.995Z,7.30
2019-03-03T12:23:52.266Z,7.13
2019-03-03T12:26:32.306Z,8.30
2019-03-03T12:29:12.478Z,8.40
2019-03-03T12:31:46.322Z,8.03
2019-03-03T12:34:20.194Z,7.60
2019-03-03T12:36:57.379Z,7.93
2019-03-03T12:39:28.524Z,8.00
2019-03-03T12:42:14.679Z,8.60
2019-03-03T12:44:51.579Z,8.57
2019-03-03T12:47:25.629Z,8.17
2019-03-03T12:49:56.979Z,7.73
2019-03-03T12:52:37.194Z,7.80
2019-03-03T12:55:24.081Z,7.80
2019-03-03T12:57:55.167Z,8.27
2019-03-03T13:00:26.309Z,7.20
2019-03-03T13:03:09.345Z,8.33
2019-03-03T13:05:49.898Z,7.50
2019-03-03T13:08:21.018Z,7.53
2019-03-03T13:10:55.192Z,7.67
2019-03-03T13:13:38.047Z,7.67
2019-03-03T13:16:09.215Z,7.33
2019-03-03T13:18:40.345Z,6.97
2019-03-03T13:21:14.395Z,7.80
2019-03-03T13:23:48.367Z,8.27
2019-03-03T13:26:22.211Z,7.90
2019-03-03T13:28:55.121Z,6.50
2019-03-03T13:31:42.292Z,7.43
2019-03-03T13:34:13.677Z,7.43
2019-03-03T13:36:51.011Z,6.93
2019-03-03T13:39:28.040Z,6.57
2019-03-03T13:41:59.369Z,6.83
2019-03-03T13:44:28.920Z,7.17
2019-03-03T13:46:58.447Z,7.07
2019-03-03T13:49:28.045Z,6.23
2019-03-03T13:51:57.502Z,8.10
2019-03-03T13:54:27.060Z,6.80
2019-03-03T13:56:56.495Z,6.53
2019-03-03T13:59:26.049Z,6.37
2019-03-03T14:01:55.539Z,6.90
2019-03-03T14:04:25.189Z,6.17
2019-03-03T14:06:55.012Z,6.13
2019-03-03T14:09:24.610Z,6.33
2019-03-03T14:11:55.087Z,6.07
2019-03-03T14:14:26.289Z,6.93
2019-03-03T14:16:55.683Z,6.40
2019-03-03T14:19:26.869Z,6.67
2019-03-03T14:21:56.381Z,6.77
2019-03-03T14:24:25.910Z,6.10
2019-03-03T14:26:55.416Z,5.63
2019-03-03T14:29:24.979Z,5.67
2019-03-03T14:31:54.353Z,6.00
2019-03-03T14:34:23.863Z,6.67
2019-03-03T14:36:53.307Z,6.73
2019-03-03T14:39:22.799Z,7.40
2019-03-03T14:41:52.316Z,6.03
2019-03-03T14:44:21.820Z,6.43
2019-03-03T14:46:51.378Z,7.43
2019-03-03T14:49:20.911Z,6.57
2019-03-03T14:51:50.568Z,6.50
2019-03-03T14:54:20.015Z,6.97
2019-03-03T14:56:49.648Z,6.07
2019-03-03T14:59:19.074Z,6.47
2019-03-03T15:01:48.554Z,6.10
2019-03-03T15:04:18.171Z,6.33
2019-03-03T15:06:47.743Z,6.53
2019-03-03T15:09:19.192Z,6.57
2019-03-03T15:11:48.843Z,6.97
2019-03-03T15:14:18.435Z,6.23
2019-03-03T15:16:47.893Z,5.53
2019-03-03T15:19:17.399Z,6.07
2019-03-03T15:21:46.949Z,6.53
2019-03-03T15:24:16.628Z,7.10
2019-03-03T15:26:46.255Z,6.27
2019-03-03T15:29:15.808Z,7.17
2019-03-03T15:31:45.237Z,7.80
2019-03-03T15:34:14.773Z,6.00
2019-03-03T15:36:44.386Z,5.90
2019-03-03T15:39:13.961Z,7.77
2019-03-03T15:41:43.487Z,6.20
2019-03-03T15:44:13.034Z,5.53
2019-03-03T15:46:42.574Z,6.23
2019-03-03T15:49:12.095Z,6.80
2019-03-03T15:51:41.692Z,5.80
2019-03-03T15:54:11.209Z,7.10
2019-03-03T15:56:40.648Z,7.10
2019-03-03T15:59:10.199Z,5.77
2019-03-03T16:01:39.808Z,5.97
2019-03-03T16:04:09.331Z,6.23
2019-03-03T16:06:38.833Z,5.90
2019-03-03T16:09:10.195Z,6.70
2019-03-03T16:11:39.824Z,7.57
2019-03-03T16:14:09.455Z,6.17
2019-03-03T16:16:39.012Z,4.97
2019-03-03T16:19:08.676Z,5.80
2019-03-03T16:21:38.214Z,6.33
2019-03-03T16:24:08.587Z,6.40
2019-03-03T16:26:38.253Z,6.20
2019-03-03T16:29:07.796Z,7.57
2019-03-03T16:31:37.234Z,6.90
2019-03-03T16:34:06.711Z,5.87
2019-03-03T16:36:36.147Z,8.03
2019-03-03T16:39:06.776Z,7.43
2019-03-03T16:41:36.232Z,8.87
2019-03-03T16:44:05.808Z,7.03
2019-03-03T16:46:35.472Z,6.30
2019-03-03T16:49:04.971Z,7.30
2019-03-03T16:51:34.603Z,8.17
2019-03-03T16:54:04.104Z,6.37
2019-03-03T16:56:33.562Z,6.60
2019-03-03T16:59:03.158Z,5.80
2019-03-03T17:01:32.650Z,7.47
2019-03-03T17:04:02.119Z,6.97
2019-03-03T17:06:31.599Z,6.40
2019-03-03T17:09:01.070Z,6.30
2019-03-03T17:11:30.606Z,6.17
2019-03-03T17:14:00.054Z,5.57
2019-03-03T17:16:29.567Z,5.80
2019-03-03T17:18:59.210Z,6.50
2019-03-03T17:21:28.743Z,6.00
2019-03-03T17:23:58.231Z,5.40
2019-03-03T17:26:27.696Z,6.33
2019-03-03T17:28:57.226Z,5.07
2019-03-03T17:31:26.678Z,5.53
2019-03-03T17:33:56.144Z,6.20
2019-03-03T17:36:25.637Z,5.83
2019-03-03T17:38:55.260Z,6.00
2019-03-03T17:41:24.763Z,5.67
2019-03-03T17:43:54.289Z,6.97
2019-03-03T17:46:24.287Z,6.27
2019-03-03T17:48:53.789Z,6.67
2019-03-03T17:51:23.326Z,6.80
2019-03-03T17:53:52.822Z,8.93
2019-03-03T17:56:22.251Z,7.67
2019-03-03T17:58:51.848Z,8.23
2019-03-03T18:01:21.268Z,6.80
2019-03-03T18:03:50.924Z,7.17
2019-03-03T18:06:20.410Z,7.10
2019-03-03T18:08:49.953Z,7.50
2019-03-03T18:11:19.436Z,8.17
2019-03-03T18:13:48.946Z,6.50
2019-03-03T18:16:18.472Z,6.57
2019-03-03T18:18:48.068Z,6.03
2019-03-03T18:21:17.600Z,5.93
2019-03-03T18:23:47.091Z,5.47
2019-03-03T18:26:16.633Z,6.23
2019-03-03T18:28:46.080Z,6.30
2019-03-03T18:31:15.622Z,5.90
2019-03-03T18:33:45.254Z,5.80
2019-03-03T18:36:14.765Z,6.50
2019-03-03T18:38:44.704Z,6.60
2019-03-03T18:41:14.148Z,6.60
2019-03-03T18:43:43.822Z,7.23
2019-03-03T18:46:13.389Z,7.10
2019-03-03T18:48:42.994Z,7.37
2019-03-03T18:51:12.452Z,6.57
2019-03-03T18:53:42.034Z,6.97
2019-03-03T18:56:11.658Z,6.57
2019-03-03T18:58:41.060Z,7.13
2019-03-03T19:01:10.600Z,6.57
2019-03-03T19:03:40.955Z,6.83
2019-03-03T19:06:10.432Z,7.00
2019-03-03T19:08:41.656Z,7.23
2019-03-03T19:11:11.163Z,7.00
2019-03-03T19:13:40.640Z,6.53
2019-03-03T19:16:10.181Z,7.13
2019-03-03T19:18:39.694Z,6.37
2019-03-03T19:21:09.216Z,7.20
2019-03-03T19:23:38.786Z,6.53
2019-03-03T19:26:08.314Z,6.00
2019-03-03T19:28:37.838Z,6.47
2019-03-03T19:31:07.492Z,6.90
2019-03-03T19:33:40.174Z,6.47
2019-03-03T19:36:09.666Z,7.40
2019-03-03T19:38:39.242Z,6.93
2019-03-03T19:41:08.728Z,6.70
2019-03-03T19:43:38.198Z,6.67
2019-03-03T19:46:10.275Z,6.30
2019-03-03T19:48:39.846Z,6.97
2019-03-03T19:51:09.448Z,6.80
2019-03-03T19:53:38.948Z,6.40
2019-03-03T19:56:08.351Z,6.57
2019-03-03T19:58:37.892Z,7.33
2019-03-03T20:01:07.602Z,7.07
2019-03-03T20:03:37.174Z,7.80
2019-03-03T20:06:06.797Z,6.70
2019-03-03T20:08:36.322Z,7.37
2019-03-03T20:11:05.882Z,7.37
2019-03-03T20:13:35.349Z,7.47
2019-03-03T20:16:05.638Z,7.47
2019-03-03T20:18:35.061Z,7.10
2019-03-03T20:21:04.644Z,7.77
2019-03-03T20:23:34.114Z,7.10
2019-03-03T20:26:05.138Z,8.37
2019-03-03T20:28:36.262Z,7.20
2019-03-03T20:31:06.136Z,6.97
2019-03-03T20:33:35.702Z,7.77
2019-03-03T20:36:05.529Z,6.27
2019-03-03T20:38:35.122Z,6.70
2019-03-03T20:41:04.594Z,6.80
2019-03-03T20:43:34.000Z,6.73
2019-03-03T20:46:03.567Z,6.80
2019-03-03T20:48:33.367Z,7.13
2019-03-03T20:51:02.884Z,6.97
2019-03-03T20:53:32.287Z,6.43
2019-03-03T20:56:01.752Z,6.70
2019-03-03T20:58:31.412Z,6.00
2019-03-03T21:01:00.972Z,6.60
2019-03-03T21:03:30.486Z,6.53
2019-03-03T21:05:59.964Z,5.83
2019-03-03T21:08:29.472Z,6.53
2019-03-03T21:10:58.982Z,5.83
2019-03-03T21:13:28.464Z,5.97
2019-03-03T21:15:58.085Z,6.33
2019-03-03T21:18:27.742Z,5.93
2019-03-03T21:20:57.254Z,6.13
2019-03-03T21:23:26.788Z,5.70
2019-03-03T21:25:56.273Z,6.17
2019-03-03T21:28:25.700Z,6.00
2019-03-03T21:30:55.163Z,6.13
2019-03-03T21:33:24.650Z,5.40
2019-03-03T21:35:54.097Z,5.87
2019-03-03T21:38:23.613Z,5.83
2019-03-03T21:40:53.125Z,5.13
2019-03-03T21:43:22.654Z,5.57
2019-03-03T21:45:52.159Z,5.20
2019-03-03T21:48:21.833Z,5.40
2019-03-03T21:50:51.322Z,5.27
2019-03-03T21:53:20.716Z,5.23
2019-03-03T21:55:50.148Z,4.43
2019-03-03T21:58:19.687Z,4.37
2019-03-03T22:00:49.226Z,4.83
2019-03-03T22:03:18.660Z,4.80
2019-03-03T22:05:48.209Z,4.23
2019-03-03T22:08:17.640Z,3.87
2019-03-03T22:10:47.280Z,3.90
2019-03-03T22:13:16.840Z,4.37
2019-03-03T22:15:46.322Z,4.47
2019-03-03T22:18:15.823Z,4.13
2019-03-03T22:20:45.274Z,4.03
2019-03-03T22:23:14.798Z,4.33
2019-03-03T22:25:44.315Z,3.53
2019-03-03T22:28:13.740Z,3.77
2019-03-03T22:30:43.230Z,4.20
2019-03-03T22:33:12.680Z,3.50
2019-03-03T22:35:42.152Z,3.47
2019-03-03T22:38:11.623Z,3.43
2019-03-03T22:40:41.063Z,3.83
2019-03-03T22:43:10.650Z,3.60
2019-03-03T22:45:40.178Z,3.70
2019-03-03T22:48:09.618Z,3.73
2019-03-03T22:50:39.047Z,3.40
2019-03-03T22:53:08.473Z,4.27
2019-03-03T22:55:40.414Z,3.80
2019-03-03T22:58:09.480Z,3.70
2019-03-03T23:00:57.096Z,3.30
2019-03-03T23:03:38.661Z,3.17
2019-03-03T23:06:37.912Z,3.43
2019-03-03T23:14:56.944Z,3.67
2019-03-03T23:17:36.998Z,3.47
2019-03-03T23:20:16.511Z,3.50
2019-03-03T23:22:57.638Z,3.60
2019-03-03T23:25:51.520Z,3.10
2019-03-03T23:28:21.432Z,3.80
2019-03-03T23:30:51.123Z,3.20
2019-03-03T23:33:20.688Z,4.40
2019-03-03T23:35:50.382Z,3.10
2019-03-03T23:38:19.916Z,3.50
2019-03-03T23:40:49.356Z,3.43
2019-03-03T23:43:19.123Z,3.20
2019-03-03T23:45:55.992Z,3.03
2019-03-03T23:48:25.502Z,4.53
2019-03-03T23:50:55.053Z,3.23
2019-03-03T23:53:25.513Z,4.13
2019-03-03T23:56:05.195Z,3.33
2019-03-03T23:58:34.910Z,3.13
